Nathalie — OJLP — position and weather

sailwx.info

Track history (hours):
 
Tides and Currents Weather Stations Pressure Air Temp Water Temp Dewpoint Dewpoint Depression Visibility Wind Speed Wind Dir Waves Ship Positions

Nathalie

Last reported at 2016-Jun-29 17:18 UTC. Time now 2016-Jun-29 23:43 UTC.
Position N 59°44' E 024°58'.

Length 64 m; draft 3.5 m.

Type: Cargo ship. MMSI: 230987660.

Date/timePositionNaut miles runAvg speedWind from/ knotsBaromVisibWave heightAir tempDewpointWater temp
2016-Jun-29 17:18N 59°44' E 024°58'7 9.4
2016-Jun-29 16:32N 59°44' E 024°44'25 8.5
2016-Jun-29 13:33N 59°43' E 023°54'8 8.5
2016-Jun-29 12:33N 59°43' E 023°37'9 8.5
2016-Jun-29 11:33N 59°43' E 023°21'8 8.4
2016-Jun-29 10:33N 59°44' E 023°04'8 7.9
2016-Jun-29 09:32N 59°49' E 022°51'6 6.4
2016-Jun-29 08:34N 59°54' E 022°44'8 8.0
2016-Jun-29 07:33N 59°54' E 022°28'  
2016-Jun-23 16:17N 55°14' E 019°04'6 8.5
2016-Jun-23 15:33N 55°08' E 019°03'8 8.3
2016-Jun-23 14:33N 54°60' E 019°01'8 8.1
2016-Jun-23 13:33N 54°52' E 018°59'8 8.1
2016-Jun-23 12:33N 54°44' E 018°58'8 8.3
2016-Jun-23 11:33N 54°36' E 018°54'8 8.4
2016-Jun-23 10:33N 54°29' E 018°45'6 5.7
2016-Jun-23 09:33N 54°24' E 018°41'0 0.0
2016-Jun-23 08:33N 54°24' E 018°41'0 0.0
2016-Jun-23 07:31N 54°24' E 018°41'0 0.0
2016-Jun-23 05:31N 54°24' E 018°41'0 0.0
2016-Jun-23 04:31N 54°24' E 018°41'0 0.0
2016-Jun-23 03:31N 54°24' E 018°41'0 0.0
2016-Jun-23 02:31N 54°24' E 018°41'0 0.0
2016-Jun-23 01:31N 54°24' E 018°41'0 0.0
2016-Jun-23 00:31N 54°24' E 018°41'0 0.0
2016-Jun-22 23:31N 54°24' E 018°41'0 0.0
2016-Jun-22 22:31N 54°24' E 018°41'0 0.0
2016-Jun-22 21:31N 54°24' E 018°41'0 0.0
2016-Jun-22 20:31N 54°24' E 018°41'0 0.0
2016-Jun-22 19:31N 54°24' E 018°41'0 0.0
2016-Jun-22 18:31N 54°24' E 018°41'0 0.0
2016-Jun-22 17:31N 54°24' E 018°41'0 0.0
2016-Jun-22 16:31N 54°24' E 018°41'0 0.0
2016-Jun-22 15:31N 54°24' E 018°41'0 0.0
2016-Jun-22 14:31N 54°24' E 018°41'0 0.0
2016-Jun-22 13:31N 54°24' E 018°41'0 0.0
2016-Jun-22 12:31N 54°24' E 018°41'4 4.3
2016-Jun-22 11:33N 54°28' E 018°38'1 0.9
2016-Jun-22 10:33N 54°29' E 018°39'1 0.7
2016-Jun-22 09:33N 54°29' E 018°40'0 0.4
2016-Jun-22 08:33N 54°28' E 018°40'2 2.0
2016-Jun-22 07:33N 54°29' E 018°43'9 8.8
2016-Jun-22 06:33N 54°36' E 018°53'9 9.0
2016-Jun-22 05:33N 54°44' E 018°58'9 9.5
2016-Jun-22 04:33N 54°53' E 018°60'9 9.0
2016-Jun-22 03:33N 55°02' E 019°02'9 9.1
2016-Jun-22 02:33N 55°11' E 019°04'9 9.2
2016-Jun-22 01:32N 55°21' E 019°07'10 9.1
2016-Jun-22 00:30N 55°30' E 019°09'9 8.8
2016-Jun-21 23:26N 55°39' E 019°11'247 8.9
2016-Jun-20 19:33N 59°37' E 021°16'9 9.0
2016-Jun-20 18:33N 59°46' E 021°20'8 8.3
2016-Jun-20 17:33N 59°53' E 021°30'1 0.0
2016-Jun-19 21:28N 59°53' E 021°31'8 8.3
2016-Jun-19 20:34N 59°48' E 021°21'8 8.4
2016-Jun-19 19:34N 59°39' E 021°20'8 8.4
2016-Jun-19 18:33N 59°31' E 021°19'  
Track history (hours):
 
Tides and Currents Weather Stations Pressure Air Temp Water Temp Dewpoint Dewpoint Depression Visibility Wind Speed Wind Dir Waves Ship Positions

Nathalie

Last reported at 2016-Jun-29 17:18 UTC. Time now 2016-Jun-29 23:43 UTC.
Position N 59°44' E 024°58'.

Length 64 m; draft 3.5 m.

Type: Cargo ship. MMSI: 230987660.

Date/timePositionNaut miles runAvg speedWind from/ knotsBaromVisibWave heightAir tempDewpointWater temp
2016-Jun-29 17:18N 59°44' E 024°58'7 9.4
2016-Jun-29 16:32N 59°44' E 024°44'25 8.5
2016-Jun-29 13:33N 59°43' E 023°54'8 8.5
2016-Jun-29 12:33N 59°43' E 023°37'9 8.5
2016-Jun-29 11:33N 59°43' E 023°21'8 8.4
2016-Jun-29 10:33N 59°44' E 023°04'8 7.9
2016-Jun-29 09:32N 59°49' E 022°51'6 6.4
2016-Jun-29 08:34N 59°54' E 022°44'8 8.0
2016-Jun-29 07:33N 59°54' E 022°28'  
2016-Jun-23 16:17N 55°14' E 019°04'6 8.5
2016-Jun-23 15:33N 55°08' E 019°03'8 8.3
2016-Jun-23 14:33N 54°60' E 019°01'8 8.1
2016-Jun-23 13:33N 54°52' E 018°59'8 8.1
2016-Jun-23 12:33N 54°44' E 018°58'8 8.3
2016-Jun-23 11:33N 54°36' E 018°54'8 8.4
2016-Jun-23 10:33N 54°29' E 018°45'6 5.7
2016-Jun-23 09:33N 54°24' E 018°41'0 0.0
2016-Jun-23 08:33N 54°24' E 018°41'0 0.0
2016-Jun-23 07:31N 54°24' E 018°41'0 0.0
2016-Jun-23 05:31N 54°24' E 018°41'0 0.0
2016-Jun-23 04:31N 54°24' E 018°41'0 0.0
2016-Jun-23 03:31N 54°24' E 018°41'0 0.0
2016-Jun-23 02:31N 54°24' E 018°41'0 0.0
2016-Jun-23 01:31N 54°24' E 018°41'0 0.0
2016-Jun-23 00:31N 54°24' E 018°41'0 0.0
2016-Jun-22 23:31N 54°24' E 018°41'0 0.0
2016-Jun-22 22:31N 54°24' E 018°41'0 0.0
2016-Jun-22 21:31N 54°24' E 018°41'0 0.0
2016-Jun-22 20:31N 54°24' E 018°41'0 0.0
2016-Jun-22 19:31N 54°24' E 018°41'0 0.0
2016-Jun-22 18:31N 54°24' E 018°41'0 0.0
2016-Jun-22 17:31N 54°24' E 018°41'0 0.0
2016-Jun-22 16:31N 54°24' E 018°41'0 0.0
2016-Jun-22 15:31N 54°24' E 018°41'0 0.0
2016-Jun-22 14:31N 54°24' E 018°41'0 0.0
2016-Jun-22 13:31N 54°24' E 018°41'0 0.0
2016-Jun-22 12:31N 54°24' E 018°41'4 4.3
2016-Jun-22 11:33N 54°28' E 018°38'1 0.9
2016-Jun-22 10:33N 54°29' E 018°39'1 0.7
2016-Jun-22 09:33N 54°29' E 018°40'0 0.4
2016-Jun-22 08:33N 54°28' E 018°40'2 2.0
2016-Jun-22 07:33N 54°29' E 018°43'9 8.8
2016-Jun-22 06:33N 54°36' E 018°53'9 9.0
2016-Jun-22 05:33N 54°44' E 018°58'9 9.5
2016-Jun-22 04:33N 54°53' E 018°60'9 9.0
2016-Jun-22 03:33N 55°02' E 019°02'9 9.1
2016-Jun-22 02:33N 55°11' E 019°04'9 9.2
2016-Jun-22 01:32N 55°21' E 019°07'10 9.1
2016-Jun-22 00:30N 55°30' E 019°09'9 8.8
2016-Jun-21 23:26N 55°39' E 019°11'247 8.9
2016-Jun-20 19:33N 59°37' E 021°16'9 9.0
2016-Jun-20 18:33N 59°46' E 021°20'8 8.3
2016-Jun-20 17:33N 59°53' E 021°30'1 0.0
2016-Jun-19 21:28N 59°53' E 021°31'8 8.3
2016-Jun-19 20:34N 59°48' E 021°21'8 8.4
2016-Jun-19 19:34N 59°39' E 021°20'8 8.4
2016-Jun-19 18:33N 59°31' E 021°19'  

Dump ship's entire track history